»·PEaware :: N612SB KSNA-KSBA

N612SB :: KSNA-KSBA

FLIGHT INFORMATION

Flight Status: Arrived
Operator: Privately registered:
United States
More flights under this callsign
Pilot: Clay B. (17061)
Aircraft: BEECH AIRCRAFT DEBONAIR BONANZA
(BE33)
More flights by this aircraft type
Origin: KSNA John Wayne-Orange Co
United States
Destination: KSBA Santa Barbara Mun
United States
More flights between these airports :: More routes between these airports
Route: +SLI V23 LAX V299 VTU VTU282 KWANG
File this flight plan on PilotEdge
Remarks: DOF / 180103 REG / N172SB PER / A RMK / TCAS SIMBRIEF
Altitude:
(Current/Filed)
8,000ft
Speed:
(Current/Filed)
111kts
Departed: 03-Jan-18 01:16 PM
Arrived: 03-Jan-18 02:01 PM
Distance/Time
Traveled:
108nm/0:44
Distance/Time
To Go:
Arrived

Flight Plot

Page will automatically refresh every two minutes.


Map Options




Map Legend


Flown Route
Filed Route
Departure Airport
Arrival Airport
Navaid (VOR, NDB)
Fix

Horizontal Profiles

Position Reports

Time Latitude Longitude Heading Altitude Ground
Speed
03-Jan-18 12:57 33.667864 -117.871257 220 60ft 0kts
03-Jan-18 12:58 33.667864 -117.871257 220 60ft 0kts
03-Jan-18 12:59 33.667864 -117.871257 220 60ft 0kts
03-Jan-18 13:00 33.667864 -117.871257 220 60ft 0kts
03-Jan-18 13:01 33.667864 -117.871257 220 60ft 0kts
03-Jan-18 13:02 33.667864 -117.871257 220 60ft 0kts
03-Jan-18 13:03 33.667864 -117.871257 220 60ft 0kts
03-Jan-18 13:04 33.667864 -117.871257 220 60ft 0kts
03-Jan-18 13:05 33.667864 -117.871257 220 60ft 0kts
03-Jan-18 13:06 33.667864 -117.871257 220 60ft 0kts
03-Jan-18 13:07 33.667864 -117.871257 220 60ft 0kts
03-Jan-18 13:08 33.667864 -117.871257 220 60ft 0kts
03-Jan-18 13:09 33.667864 -117.871257 220 60ft 0kts
03-Jan-18 13:10 33.667864 -117.871257 220 60ft 0kts
03-Jan-18 13:11 33.667864 -117.871257 220 60ft 0kts
03-Jan-18 13:12 33.667864 -117.871257 220 60ft 0kts
03-Jan-18 13:13 33.667864 -117.871257 220 60ft 0kts
03-Jan-18 13:14 33.667834 -117.871321 255 60ft 1kts
03-Jan-18 13:15 33.668781 -117.871297 40 60ft 7kts
03-Jan-18 13:16 33.670899 -117.869094 39 60ft 13kts
03-Jan-18 13:17 33.674014 -117.867150 30 60ft 11kts
03-Jan-18 13:18 33.677624 -117.864874 27 60ft 14kts
03-Jan-18 13:19 33.680000 -117.863712 297 60ft 0kts
03-Jan-18 13:20 33.680000 -117.863712 297 60ft 0kts
03-Jan-18 13:21 33.679929 -117.864280 203 60ft 9kts
03-Jan-18 13:22 33.663832 -117.878386 238 518ft 94kts
03-Jan-18 13:23 33.648496 -117.910737 239 1403ft 122kts
03-Jan-18 13:24 33.632034 -117.950036 241 2289ft 134kts
03-Jan-18 13:25 33.614871 -117.987256 241 3235ft 127kts
03-Jan-18 13:26 33.598220 -118.023920 241 4216ft 125kts
03-Jan-18 13:27 33.586979 -118.061343 300 5189ft 121kts
03-Jan-18 13:28 33.609395 -118.090274 320 5971ft 131kts
03-Jan-18 13:29 33.642242 -118.124444 319 5971ft 173kts
03-Jan-18 13:30 33.679515 -118.163494 320 5968ft 181kts
03-Jan-18 13:31 33.717366 -118.203273 319 5967ft 180kts
03-Jan-18 13:32 33.754396 -118.242288 319 5968ft 174kts
03-Jan-18 13:33 33.790233 -118.280074 319 5970ft 171kts
03-Jan-18 13:34 33.825573 -118.317264 318 5971ft 167kts
03-Jan-18 13:35 33.857512 -118.351059 318 5982ft 166kts
03-Jan-18 13:36 33.891729 -118.387383 318 5999ft 165kts
03-Jan-18 13:37 33.925535 -118.423210 318 5999ft 166kts
03-Jan-18 13:38 33.949010 -118.469155 290 5998ft 165kts
03-Jan-18 13:39 33.965371 -118.521099 291 5999ft 165kts
03-Jan-18 13:40 33.982512 -118.572544 292 5999ft 166kts
03-Jan-18 13:41 34.000100 -118.624364 293 5999ft 168kts
03-Jan-18 13:42 34.017616 -118.675987 292 5997ft 171kts
03-Jan-18 13:43 34.035610 -118.729100 292 5995ft 172kts
03-Jan-18 13:44 34.045207 -118.785454 282 5994ft 172kts
03-Jan-18 13:45 34.055832 -118.831794 285 5992ft 173kts
03-Jan-18 13:46 34.072590 -118.895528 285 5992ft 173kts
03-Jan-18 13:47 34.085208 -118.941452 285 5991ft 173kts
03-Jan-18 13:48 34.102895 -119.004992 286 5988ft 173kts
03-Jan-18 13:49 34.115517 -119.049815 285 5987ft 173kts
03-Jan-18 13:50 34.135444 -119.103177 292 5985ft 175kts
03-Jan-18 13:51 34.155823 -119.156210 292 5983ft 175kts
03-Jan-18 13:52 34.174925 -119.206415 292 5982ft 174kts
03-Jan-18 13:53 34.195033 -119.259502 292 5981ft 174kts
03-Jan-18 13:54 34.214977 -119.312310 291 5980ft 173kts
03-Jan-18 13:55 34.234846 -119.365039 291 5981ft 173kts
03-Jan-18 13:56 34.252805 -119.412763 291 5998ft 172kts
03-Jan-18 13:57 34.272671 -119.465649 291 5999ft 172kts
03-Jan-18 13:58 34.292530 -119.518599 291 5999ft 172kts
03-Jan-18 13:59 34.312145 -119.571424 291 5731ft 170kts
03-Jan-18 14:00 34.329616 -119.618666 291 4818ft 143kts
03-Jan-18 14:01 34.345330 -119.661047 290 3946ft 137kts
03-Jan-18 14:02 34.368353 -119.697166 312 3073ft 137kts
03-Jan-18 14:03 34.397077 -119.733294 312 2239ft 159kts
03-Jan-18 14:04 34.422975 -119.766404 310 1762ft 104kts
03-Jan-18 14:05 34.429206 -119.796670 265 971ft 88kts
03-Jan-18 14:06 34.428088 -119.826673 265 264ft 88kts
03-Jan-18 14:07 34.428665 -119.841976 344 13ft 0kts
03-Jan-18 14:08 34.429293 -119.842180 348 13ft 10kts
03-Jan-18 14:09 34.429800 -119.843372 157 13ft 0kts
03-Jan-18 14:10 34.429800 -119.843372 157 13ft 0kts
03-Jan-18 14:11 34.429800 -119.843372 157 13ft 0kts
03-Jan-18 14:12 34.429800 -119.843372 157 13ft 0kts
03-Jan-18 14:13 34.429800 -119.843372 157 13ft 0kts
03-Jan-18 14:14 34.429800 -119.843372 157 13ft 0kts
03-Jan-18 14:15 34.429800 -119.843372 157 13ft 0kts
03-Jan-18 14:16 34.429800 -119.843372 157 13ft 0kts
03-Jan-18 14:17 34.429800 -119.843372 157 13ft 0kts
03-Jan-18 14:18 34.429800 -119.843372 157 13ft 0kts
03-Jan-18 14:19 34.429800 -119.843372 157 13ft 0kts
03-Jan-18 14:20 34.429800 -119.843372 157 13ft 0kts
03-Jan-18 14:21 34.429800 -119.843372 157 13ft 0kts

Navigation Log

Ident Type
1. KSNA Airport
2. SLI Navaid
3. POPPR Fix
4. HERMO Fix
5. LAX Navaid
6. SADDE Fix
7. VTU Navaid
8. KWANG Fix
9. KSBA Airport